sensor_id;sensor_type;location;lat;lon;timestamp;P1;durP1;ratioP1;P2;durP2;ratioP2
6850;SDS011;3464;42.728;23.296;2024-01-27T00:01:35;22.93;;;5.53;;
6850;SDS011;3464;42.728;23.296;2024-01-27T00:04:02;22.53;;;5.70;;
6850;SDS011;3464;42.728;23.296;2024-01-27T00:06:28;16.90;;;5.30;;
6850;SDS011;3464;42.728;23.296;2024-01-27T00:08:55;18.57;;;5.20;;
6850;SDS011;3464;42.728;23.296;2024-01-27T00:11:22;12.43;;;4.10;;
6850;SDS011;3464;42.728;23.296;2024-01-27T00:13:49;19.10;;;4.63;;
6850;SDS011;3464;42.728;23.296;2024-01-27T00:16:15;12.97;;;4.07;;
6850;SDS011;3464;42.728;23.296;2024-01-27T00:18:42;15.83;;;4.50;;
6850;SDS011;3464;42.728;23.296;2024-01-27T00:21:09;12.10;;;3.90;;
6850;SDS011;3464;42.728;23.296;2024-01-27T00:23:36;19.10;;;4.50;;
6850;SDS011;3464;42.728;23.296;2024-01-27T00:26:02;15.80;;;4.30;;
6850;SDS011;3464;42.728;23.296;2024-01-27T00:28:29;16.87;;;4.87;;
6850;SDS011;3464;42.728;23.296;2024-01-27T00:30:56;17.30;;;5.50;;
6850;SDS011;3464;42.728;23.296;2024-01-27T00:33:22;20.73;;;6.53;;
6850;SDS011;3464;42.728;23.296;2024-01-27T00:35:50;19.73;;;6.23;;
6850;SDS011;3464;42.728;23.296;2024-01-27T00:38:16;15.93;;;5.40;;
6850;SDS011;3464;42.728;23.296;2024-01-27T00:40:43;22.93;;;5.77;;
6850;SDS011;3464;42.728;23.296;2024-01-27T00:43:09;17.90;;;5.80;;
6850;SDS011;3464;42.728;23.296;2024-01-27T00:45:36;21.87;;;6.17;;
6850;SDS011;3464;42.728;23.296;2024-01-27T00:48:03;20.80;;;6.27;;
6850;SDS011;3464;42.728;23.296;2024-01-27T00:50:30;16.20;;;5.03;;
6850;SDS011;3464;42.728;23.296;2024-01-27T00:52:56;20.40;;;5.20;;
6850;SDS011;3464;42.728;23.296;2024-01-27T00:55:23;15.93;;;4.83;;
6850;SDS011;3464;42.728;23.296;2024-01-27T00:57:49;19.70;;;5.10;;
6850;SDS011;3464;42.728;23.296;2024-01-27T01:00:16;16.27;;;4.70;;
6850;SDS011;3464;42.728;23.296;2024-01-27T01:02:43;18.63;;;6.27;;
6850;SDS011;3464;42.728;23.296;2024-01-27T01:05:09;14.03;;;4.80;;
6850;SDS011;3464;42.728;23.296;2024-01-27T01:07:36;22.30;;;5.87;;
6850;SDS011;3464;42.728;23.296;2024-01-27T01:10:02;19.80;;;5.83;;
6850;SDS011;3464;42.728;23.296;2024-01-27T01:12:29;19.17;;;5.40;;
6850;SDS011;3464;42.728;23.296;2024-01-27T01:14:56;19.70;;;5.53;;
6850;SDS011;3464;42.728;23.296;2024-01-27T01:17:22;23.60;;;5.10;;
6850;SDS011;3464;42.728;23.296;2024-01-27T01:19:49;16.10;;;5.40;;
6850;SDS011;3464;42.728;23.296;2024-01-27T01:22:18;23.67;;;5.43;;
6850;SDS011;3464;42.728;23.296;2024-01-27T01:24:45;19.33;;;5.37;;
6850;SDS011;3464;42.728;23.296;2024-01-27T01:27:12;18.40;;;4.83;;
6850;SDS011;3464;42.728;23.296;2024-01-27T01:29:39;15.80;;;4.80;;
6850;SDS011;3464;42.728;23.296;2024-01-27T01:32:05;15.27;;;5.00;;
6850;SDS011;3464;42.728;23.296;2024-01-27T01:34:32;17.87;;;5.00;;
6850;SDS011;3464;42.728;23.296;2024-01-27T01:36:59;16.77;;;5.00;;
6850;SDS011;3464;42.728;23.296;2024-01-27T01:39:25;23.00;;;5.43;;
6850;SDS011;3464;42.728;23.296;2024-01-27T01:41:52;15.03;;;4.80;;
6850;SDS011;3464;42.728;23.296;2024-01-27T01:44:19;14.23;;;4.80;;
6850;SDS011;3464;42.728;23.296;2024-01-27T01:46:45;16.13;;;4.70;;
6850;SDS011;3464;42.728;23.296;2024-01-27T01:49:12;17.83;;;4.40;;
6850;SDS011;3464;42.728;23.296;2024-01-27T01:51:39;17.50;;;4.30;;
6850;SDS011;3464;42.728;23.296;2024-01-27T01:54:05;19.70;;;4.73;;
6850;SDS011;3464;42.728;23.296;2024-01-27T01:56:34;22.00;;;4.53;;
6850;SDS011;3464;42.728;23.296;2024-01-27T01:59:00;17.73;;;3.93;;
6850;SDS011;3464;42.728;23.296;2024-01-27T02:01:27;15.63;;;3.73;;
6850;SDS011;3464;42.728;23.296;2024-01-27T02:03:54;16.93;;;4.20;;
6850;SDS011;3464;42.728;23.296;2024-01-27T02:06:21;15.20;;;3.73;;
6850;SDS011;3464;42.728;23.296;2024-01-27T02:08:47;17.50;;;4.40;;
6850;SDS011;3464;42.728;23.296;2024-01-27T02:11:14;17.40;;;4.33;;
6850;SDS011;3464;42.728;23.296;2024-01-27T02:13:40;15.63;;;4.00;;
6850;SDS011;3464;42.728;23.296;2024-01-27T02:16:07;18.70;;;4.10;;
6850;SDS011;3464;42.728;23.296;2024-01-27T02:18:33;23.30;;;4.03;;
6850;SDS011;3464;42.728;23.296;2024-01-27T02:21:00;19.57;;;4.27;;
6850;SDS011;3464;42.728;23.296;2024-01-27T02:23:27;17.40;;;4.30;;
6850;SDS011;3464;42.728;23.296;2024-01-27T02:25:54;16.23;;;3.87;;
6850;SDS011;3464;42.728;23.296;2024-01-27T02:28:20;14.70;;;4.30;;
6850;SDS011;3464;42.728;23.296;2024-01-27T02:30:47;20.43;;;5.10;;
6850;SDS011;3464;42.728;23.296;2024-01-27T02:33:14;17.33;;;5.70;;
6850;SDS011;3464;42.728;23.296;2024-01-27T02:35:41;22.00;;;4.27;;
6850;SDS011;3464;42.728;23.296;2024-01-27T02:38:07;19.50;;;4.87;;
6850;SDS011;3464;42.728;23.296;2024-01-27T02:40:34;20.90;;;4.67;;
6850;SDS011;3464;42.728;23.296;2024-01-27T02:43:00;16.00;;;4.80;;
6850;SDS011;3464;42.728;23.296;2024-01-27T02:45:27;16.90;;;4.43;;
6850;SDS011;3464;42.728;23.296;2024-01-27T02:47:53;16.20;;;4.40;;
6850;SDS011;3464;42.728;23.296;2024-01-27T02:50:20;22.10;;;4.50;;
6850;SDS011;3464;42.728;23.296;2024-01-27T02:52:53;16.30;;;4.00;;
6850;SDS011;3464;42.728;23.296;2024-01-27T02:55:26;15.30;;;3.93;;
6850;SDS011;3464;42.728;23.296;2024-01-27T02:57:53;16.30;;;3.77;;
6850;SDS011;3464;42.728;23.296;2024-01-27T03:00:20;16.43;;;3.60;;
6850;SDS011;3464;42.728;23.296;2024-01-27T03:02:46;16.07;;;3.80;;
6850;SDS011;3464;42.728;23.296;2024-01-27T03:05:13;12.43;;;3.33;;
6850;SDS011;3464;42.728;23.296;2024-01-27T03:07:39;13.87;;;3.23;;
6850;SDS011;3464;42.728;23.296;2024-01-27T03:10:06;14.87;;;3.77;;
6850;SDS011;3464;42.728;23.296;2024-01-27T03:12:33;16.73;;;4.43;;
6850;SDS011;3464;42.728;23.296;2024-01-27T03:14:59;15.00;;;4.00;;
6850;SDS011;3464;42.728;23.296;2024-01-27T03:17:26;12.80;;;3.70;;
6850;SDS011;3464;42.728;23.296;2024-01-27T03:19:53;14.37;;;3.20;;
6850;SDS011;3464;42.728;23.296;2024-01-27T03:22:19;13.90;;;3.30;;
6850;SDS011;3464;42.728;23.296;2024-01-27T03:24:46;14.40;;;3.30;;
6850;SDS011;3464;42.728;23.296;2024-01-27T03:27:13;12.57;;;3.30;;
6850;SDS011;3464;42.728;23.296;2024-01-27T03:29:39;11.40;;;2.90;;
6850;SDS011;3464;42.728;23.296;2024-01-27T03:32:06;14.10;;;3.30;;
6850;SDS011;3464;42.728;23.296;2024-01-27T03:34:32;11.30;;;2.70;;
6850;SDS011;3464;42.728;23.296;2024-01-27T03:37:00;13.57;;;3.40;;
6850;SDS011;3464;42.728;23.296;2024-01-27T03:39:27;17.83;;;3.57;;
6850;SDS011;3464;42.728;23.296;2024-01-27T03:41:54;15.37;;;3.63;;
6850;SDS011;3464;42.728;23.296;2024-01-27T03:44:20;15.43;;;3.67;;
6850;SDS011;3464;42.728;23.296;2024-01-27T03:46:47;13.47;;;3.90;;
6850;SDS011;3464;42.728;23.296;2024-01-27T03:49:13;17.83;;;3.50;;
6850;SDS011;3464;42.728;23.296;2024-01-27T03:51:41;14.47;;;3.37;;
6850;SDS011;3464;42.728;23.296;2024-01-27T03:54:08;16.13;;;3.80;;
6850;SDS011;3464;42.728;23.296;2024-01-27T03:56:35;16.30;;;4.17;;
6850;SDS011;3464;42.728;23.296;2024-01-27T03:59:02;19.63;;;5.20;;
6850;SDS011;3464;42.728;23.296;2024-01-27T04:01:29;15.93;;;4.70;;
6850;SDS011;3464;42.728;23.296;2024-01-27T04:03:55;13.40;;;4.33;;
6850;SDS011;3464;42.728;23.296;2024-01-27T04:06:22;17.33;;;4.90;;
6850;SDS011;3464;42.728;23.296;2024-01-27T04:08:48;17.03;;;4.27;;
6850;SDS011;3464;42.728;23.296;2024-01-27T04:11:20;13.67;;;3.70;;
6850;SDS011;3464;42.728;23.296;2024-01-27T04:13:48;20.30;;;4.10;;
6850;SDS011;3464;42.728;23.296;2024-01-27T04:16:13;17.60;;;4.60;;
6850;SDS011;3464;42.728;23.296;2024-01-27T04:18:41;19.60;;;4.40;;
6850;SDS011;3464;42.728;23.296;2024-01-27T04:21:07;17.70;;;4.30;;
6850;SDS011;3464;42.728;23.296;2024-01-27T04:23:33;16.70;;;4.37;;
6850;SDS011;3464;42.728;23.296;2024-01-27T04:26:00;18.23;;;4.53;;
6850;SDS011;3464;42.728;23.296;2024-01-27T04:28:28;17.73;;;4.83;;
6850;SDS011;3464;42.728;23.296;2024-01-27T04:30:54;13.60;;;4.00;;
6850;SDS011;3464;42.728;23.296;2024-01-27T04:33:21;16.83;;;4.80;;
6850;SDS011;3464;42.728;23.296;2024-01-27T04:35:48;16.30;;;5.53;;
6850;SDS011;3464;42.728;23.296;2024-01-27T04:38:14;18.57;;;4.10;;
6850;SDS011;3464;42.728;23.296;2024-01-27T04:40:41;21.10;;;4.73;;
6850;SDS011;3464;42.728;23.296;2024-01-27T04:43:07;14.80;;;4.17;;
6850;SDS011;3464;42.728;23.296;2024-01-27T04:45:34;14.27;;;3.93;;
6850;SDS011;3464;42.728;23.296;2024-01-27T04:48:00;13.50;;;4.03;;
6850;SDS011;3464;42.728;23.296;2024-01-27T04:50:27;12.50;;;3.80;;
6850;SDS011;3464;42.728;23.296;2024-01-27T04:52:53;17.50;;;4.03;;
6850;SDS011;3464;42.728;23.296;2024-01-27T04:55:20;15.77;;;3.90;;
6850;SDS011;3464;42.728;23.296;2024-01-27T04:57:47;17.20;;;4.30;;
6850;SDS011;3464;42.728;23.296;2024-01-27T05:00:13;17.60;;;4.20;;
6850;SDS011;3464;42.728;23.296;2024-01-27T05:02:41;12.93;;;3.60;;
6850;SDS011;3464;42.728;23.296;2024-01-27T05:05:07;12.53;;;3.40;;
6850;SDS011;3464;42.728;23.296;2024-01-27T05:07:34;16.77;;;4.17;;
6850;SDS011;3464;42.728;23.296;2024-01-27T05:10:00;12.93;;;4.20;;
6850;SDS011;3464;42.728;23.296;2024-01-27T05:12:27;12.70;;;3.37;;
6850;SDS011;3464;42.728;23.296;2024-01-27T05:14:54;12.37;;;3.40;;
6850;SDS011;3464;42.728;23.296;2024-01-27T05:17:20;16.30;;;4.37;;
6850;SDS011;3464;42.728;23.296;2024-01-27T05:19:47;14.77;;;4.27;;
6850;SDS011;3464;42.728;23.296;2024-01-27T05:22:14;17.33;;;4.30;;
6850;SDS011;3464;42.728;23.296;2024-01-27T05:24:41;17.60;;;4.20;;
6850;SDS011;3464;42.728;23.296;2024-01-27T05:27:08;14.07;;;4.10;;
6850;SDS011;3464;42.728;23.296;2024-01-27T05:29:36;15.00;;;4.30;;
6850;SDS011;3464;42.728;23.296;2024-01-27T05:32:02;21.83;;;5.00;;
6850;SDS011;3464;42.728;23.296;2024-01-27T05:34:29;14.03;;;4.20;;
6850;SDS011;3464;42.728;23.296;2024-01-27T05:36:56;15.53;;;4.13;;
6850;SDS011;3464;42.728;23.296;2024-01-27T05:39:23;16.00;;;4.80;;
6850;SDS011;3464;42.728;23.296;2024-01-27T05:41:49;17.20;;;4.80;;
6850;SDS011;3464;42.728;23.296;2024-01-27T05:44:16;16.60;;;5.10;;
6850;SDS011;3464;42.728;23.296;2024-01-27T05:46:42;16.50;;;5.30;;
6850;SDS011;3464;42.728;23.296;2024-01-27T05:49:09;19.93;;;5.47;;
6850;SDS011;3464;42.728;23.296;2024-01-27T05:51:37;14.40;;;4.67;;
6850;SDS011;3464;42.728;23.296;2024-01-27T05:54:03;15.50;;;4.87;;
6850;SDS011;3464;42.728;23.296;2024-01-27T05:56:30;16.20;;;4.60;;
6850;SDS011;3464;42.728;23.296;2024-01-27T05:58:57;17.00;;;4.30;;
6850;SDS011;3464;42.728;23.296;2024-01-27T06:01:23;19.17;;;5.60;;
6850;SDS011;3464;42.728;23.296;2024-01-27T06:03:50;27.73;;;7.57;;
6850;SDS011;3464;42.728;23.296;2024-01-27T06:06:16;44.37;;;8.37;;
6850;SDS011;3464;42.728;23.296;2024-01-27T06:08:43;17.50;;;5.70;;
6850;SDS011;3464;42.728;23.296;2024-01-27T06:11:09;24.20;;;7.20;;
6850;SDS011;3464;42.728;23.296;2024-01-27T06:13:36;16.93;;;6.03;;
6850;SDS011;3464;42.728;23.296;2024-01-27T06:16:06;22.00;;;5.70;;
6850;SDS011;3464;42.728;23.296;2024-01-27T06:18:29;15.70;;;5.50;;
6850;SDS011;3464;42.728;23.296;2024-01-27T06:20:56;15.03;;;5.37;;
6850;SDS011;3464;42.728;23.296;2024-01-27T06:23:23;16.33;;;5.50;;
6850;SDS011;3464;42.728;23.296;2024-01-27T06:25:50;19.47;;;5.97;;
6850;SDS011;3464;42.728;23.296;2024-01-27T06:28:18;19.00;;;5.53;;
6850;SDS011;3464;42.728;23.296;2024-01-27T06:30:45;19.30;;;6.00;;
6850;SDS011;3464;42.728;23.296;2024-01-27T06:33:11;26.10;;;6.37;;
6850;SDS011;3464;42.728;23.296;2024-01-27T06:35:38;20.73;;;6.50;;
6850;SDS011;3464;42.728;23.296;2024-01-27T06:38:04;20.57;;;5.70;;
6850;SDS011;3464;42.728;23.296;2024-01-27T06:40:31;18.10;;;5.70;;
6850;SDS011;3464;42.728;23.296;2024-01-27T06:42:58;23.23;;;6.17;;
6850;SDS011;3464;42.728;23.296;2024-01-27T06:45:24;19.47;;;5.80;;
6850;SDS011;3464;42.728;23.296;2024-01-27T06:47:51;19.73;;;6.70;;
6850;SDS011;3464;42.728;23.296;2024-01-27T06:50:17;19.60;;;5.53;;
6850;SDS011;3464;42.728;23.296;2024-01-27T06:52:44;20.07;;;6.27;;
6850;SDS011;3464;42.728;23.296;2024-01-27T06:55:10;35.63;;;7.77;;
6850;SDS011;3464;42.728;23.296;2024-01-27T06:57:37;16.80;;;5.37;;
6850;SDS011;3464;42.728;23.296;2024-01-27T07:00:04;16.87;;;6.03;;
6850;SDS011;3464;42.728;23.296;2024-01-27T07:02:31;20.27;;;6.50;;
6850;SDS011;3464;42.728;23.296;2024-01-27T07:04:57;18.13;;;5.50;;
6850;SDS011;3464;42.728;23.296;2024-01-27T07:07:25;17.13;;;6.03;;
6850;SDS011;3464;42.728;23.296;2024-01-27T07:09:52;18.40;;;5.20;;
6850;SDS011;3464;42.728;23.296;2024-01-27T07:12:18;15.40;;;4.93;;
6850;SDS011;3464;42.728;23.296;2024-01-27T07:14:45;14.03;;;5.00;;
6850;SDS011;3464;42.728;23.296;2024-01-27T07:17:12;14.13;;;4.70;;
6850;SDS011;3464;42.728;23.296;2024-01-27T07:19:40;15.67;;;4.90;;
6850;SDS011;3464;42.728;23.296;2024-01-27T07:22:06;15.07;;;4.70;;
6850;SDS011;3464;42.728;23.296;2024-01-27T07:24:35;12.63;;;4.10;;
6850;SDS011;3464;42.728;23.296;2024-01-27T07:27:02;11.90;;;3.70;;
6850;SDS011;3464;42.728;23.296;2024-01-27T07:29:29;10.13;;;2.73;;
6850;SDS011;3464;42.728;23.296;2024-01-27T07:31:56;8.20;;;2.00;;
6850;SDS011;3464;42.728;23.296;2024-01-27T07:34:23;9.13;;;2.10;;
6850;SDS011;3464;42.728;23.296;2024-01-27T07:36:50;11.13;;;2.50;;
6850;SDS011;3464;42.728;23.296;2024-01-27T07:39:17;9.03;;;2.30;;
6850;SDS011;3464;42.728;23.296;2024-01-27T07:41:43;9.90;;;2.20;;
6850;SDS011;3464;42.728;23.296;2024-01-27T07:44:10;11.97;;;3.10;;
6850;SDS011;3464;42.728;23.296;2024-01-27T07:46:37;10.53;;;2.77;;
6850;SDS011;3464;42.728;23.296;2024-01-27T07:49:04;11.90;;;3.20;;
6850;SDS011;3464;42.728;23.296;2024-01-27T07:51:30;10.40;;;2.73;;
6850;SDS011;3464;42.728;23.296;2024-01-27T07:53:57;10.27;;;2.90;;
6850;SDS011;3464;42.728;23.296;2024-01-27T07:56:23;10.50;;;2.77;;
6850;SDS011;3464;42.728;23.296;2024-01-27T07:58:50;10.17;;;3.10;;
6850;SDS011;3464;42.728;23.296;2024-01-27T08:01:17;12.10;;;3.10;;
6850;SDS011;3464;42.728;23.296;2024-01-27T08:03:43;9.77;;;3.03;;
6850;SDS011;3464;42.728;23.296;2024-01-27T08:06:14;12.23;;;3.40;;
6850;SDS011;3464;42.728;23.296;2024-01-27T08:08:41;10.30;;;3.67;;
6850;SDS011;3464;42.728;23.296;2024-01-27T08:11:08;11.63;;;3.80;;
6850;SDS011;3464;42.728;23.296;2024-01-27T08:13:35;11.63;;;4.07;;
6850;SDS011;3464;42.728;23.296;2024-01-27T08:16:02;10.90;;;3.60;;
6850;SDS011;3464;42.728;23.296;2024-01-27T08:18:30;12.13;;;4.07;;
6850;SDS011;3464;42.728;23.296;2024-01-27T08:20:57;12.40;;;4.10;;
6850;SDS011;3464;42.728;23.296;2024-01-27T08:23:24;13.43;;;4.70;;
6850;SDS011;3464;42.728;23.296;2024-01-27T08:25:50;15.73;;;5.43;;
6850;SDS011;3464;42.728;23.296;2024-01-27T08:28:17;13.83;;;4.50;;
6850;SDS011;3464;42.728;23.296;2024-01-27T08:30:44;13.13;;;4.50;;
6850;SDS011;3464;42.728;23.296;2024-01-27T08:33:11;12.30;;;3.73;;
6850;SDS011;3464;42.728;23.296;2024-01-27T08:35:37;13.57;;;4.50;;
6850;SDS011;3464;42.728;23.296;2024-01-27T08:38:04;15.00;;;4.67;;
6850;SDS011;3464;42.728;23.296;2024-01-27T08:40:30;11.17;;;4.00;;
6850;SDS011;3464;42.728;23.296;2024-01-27T08:42:57;13.13;;;3.80;;
6850;SDS011;3464;42.728;23.296;2024-01-27T08:45:23;12.80;;;4.10;;
6850;SDS011;3464;42.728;23.296;2024-01-27T08:47:50;11.07;;;3.30;;
6850;SDS011;3464;42.728;23.296;2024-01-27T08:50:16;10.33;;;3.20;;
6850;SDS011;3464;42.728;23.296;2024-01-27T08:52:43;11.70;;;3.40;;
6850;SDS011;3464;42.728;23.296;2024-01-27T08:55:10;23.33;;;4.73;;
6850;SDS011;3464;42.728;23.296;2024-01-27T08:57:36;11.00;;;3.13;;
6850;SDS011;3464;42.728;23.296;2024-01-27T09:00:03;10.07;;;3.00;;
6850;SDS011;3464;42.728;23.296;2024-01-27T09:02:31;26.13;;;4.77;;
6850;SDS011;3464;42.728;23.296;2024-01-27T09:04:57;10.70;;;3.20;;
6850;SDS011;3464;42.728;23.296;2024-01-27T09:07:24;12.70;;;3.57;;
6850;SDS011;3464;42.728;23.296;2024-01-27T09:09:50;9.80;;;2.53;;
6850;SDS011;3464;42.728;23.296;2024-01-27T09:12:17;10.03;;;3.47;;
6850;SDS011;3464;42.728;23.296;2024-01-27T09:14:43;9.80;;;3.07;;
6850;SDS011;3464;42.728;23.296;2024-01-27T09:17:10;9.70;;;2.80;;
6850;SDS011;3464;42.728;23.296;2024-01-27T09:19:36;9.50;;;3.10;;
6850;SDS011;3464;42.728;23.296;2024-01-27T09:22:03;10.07;;;3.03;;
6850;SDS011;3464;42.728;23.296;2024-01-27T09:24:29;12.07;;;2.97;;
6850;SDS011;3464;42.728;23.296;2024-01-27T09:26:56;9.87;;;3.23;;
6850;SDS011;3464;42.728;23.296;2024-01-27T09:29:23;10.80;;;3.50;;
6850;SDS011;3464;42.728;23.296;2024-01-27T09:31:50;11.13;;;3.30;;
6850;SDS011;3464;42.728;23.296;2024-01-27T09:34:16;10.30;;;3.07;;
6850;SDS011;3464;42.728;23.296;2024-01-27T09:36:43;14.20;;;3.60;;
6850;SDS011;3464;42.728;23.296;2024-01-27T09:39:09;12.40;;;4.50;;
6850;SDS011;3464;42.728;23.296;2024-01-27T09:41:37;12.23;;;3.30;;
6850;SDS011;3464;42.728;23.296;2024-01-27T09:44:03;10.10;;;2.83;;
6850;SDS011;3464;42.728;23.296;2024-01-27T09:46:30;10.93;;;3.50;;
6850;SDS011;3464;42.728;23.296;2024-01-27T09:48:57;11.43;;;3.37;;
6850;SDS011;3464;42.728;23.296;2024-01-27T09:51:24;10.77;;;3.40;;
6850;SDS011;3464;42.728;23.296;2024-01-27T09:53:50;11.00;;;3.13;;
6850;SDS011;3464;42.728;23.296;2024-01-27T09:56:16;10.53;;;3.33;;
6850;SDS011;3464;42.728;23.296;2024-01-27T09:58:44;9.77;;;3.10;;
6850;SDS011;3464;42.728;23.296;2024-01-27T10:01:10;12.70;;;3.00;;
6850;SDS011;3464;42.728;23.296;2024-01-27T10:03:38;9.10;;;2.80;;
6850;SDS011;3464;42.728;23.296;2024-01-27T10:06:04;10.57;;;3.03;;
6850;SDS011;3464;42.728;23.296;2024-01-27T10:08:31;11.53;;;3.20;;
6850;SDS011;3464;42.728;23.296;2024-01-27T10:10:57;10.53;;;2.90;;
6850;SDS011;3464;42.728;23.296;2024-01-27T10:13:24;14.43;;;2.70;;
6850;SDS011;3464;42.728;23.296;2024-01-27T10:18:25;8.20;;;2.20;;
6850;SDS011;3464;42.728;23.296;2024-01-27T10:20:51;8.20;;;2.30;;
6850;SDS011;3464;42.728;23.296;2024-01-27T10:23:18;9.23;;;2.83;;
6850;SDS011;3464;42.728;23.296;2024-01-27T10:25:44;9.40;;;2.40;;
6850;SDS011;3464;42.728;23.296;2024-01-27T10:28:11;9.10;;;2.67;;
6850;SDS011;3464;42.728;23.296;2024-01-27T10:30:38;8.63;;;2.80;;
6850;SDS011;3464;42.728;23.296;2024-01-27T10:33:07;12.00;;;2.37;;
6850;SDS011;3464;42.728;23.296;2024-01-27T10:35:34;9.33;;;2.20;;
6850;SDS011;3464;42.728;23.296;2024-01-27T10:38:00;9.50;;;2.70;;
6850;SDS011;3464;42.728;23.296;2024-01-27T10:40:28;9.03;;;2.20;;
6850;SDS011;3464;42.728;23.296;2024-01-27T10:43:04;8.30;;;2.40;;
6850;SDS011;3464;42.728;23.296;2024-01-27T10:45:45;9.17;;;2.80;;
6850;SDS011;3464;42.728;23.296;2024-01-27T10:48:15;9.90;;;2.73;;
6850;SDS011;3464;42.728;23.296;2024-01-27T10:50:44;10.20;;;2.70;;
6850;SDS011;3464;42.728;23.296;2024-01-27T10:53:18;15.40;;;2.67;;
6850;SDS011;3464;42.728;23.296;2024-01-27T10:55:48;10.90;;;2.83;;
6850;SDS011;3464;42.728;23.296;2024-01-27T10:58:15;8.83;;;2.60;;
6850;SDS011;3464;42.728;23.296;2024-01-27T11:00:41;9.10;;;2.70;;
6850;SDS011;3464;42.728;23.296;2024-01-27T11:03:08;11.73;;;3.17;;
6850;SDS011;3464;42.728;23.296;2024-01-27T11:11:47;11.43;;;3.30;;
6850;SDS011;3464;42.728;23.296;2024-01-27T11:14:14;10.70;;;3.60;;
6850;SDS011;3464;42.728;23.296;2024-01-27T11:16:41;8.53;;;2.80;;
6850;SDS011;3464;42.728;23.296;2024-01-27T11:19:10;10.50;;;3.63;;
6850;SDS011;3464;42.728;23.296;2024-01-27T11:21:36;9.30;;;2.83;;
6850;SDS011;3464;42.728;23.296;2024-01-27T11:26:42;10.70;;;3.27;;
6850;SDS011;3464;42.728;23.296;2024-01-27T11:29:09;11.63;;;3.40;;
6850;SDS011;3464;42.728;23.296;2024-01-27T11:31:52;9.70;;;3.43;;
6850;SDS011;3464;42.728;23.296;2024-01-27T11:34:18;9.93;;;3.33;;
6850;SDS011;3464;42.728;23.296;2024-01-27T11:36:45;11.50;;;3.60;;
6850;SDS011;3464;42.728;23.296;2024-01-27T11:41:49;15.00;;;3.40;;
6850;SDS011;3464;42.728;23.296;2024-01-27T11:44:15;10.97;;;3.63;;
6850;SDS011;3464;42.728;23.296;2024-01-27T11:46:42;11.27;;;3.50;;
6850;SDS011;3464;42.728;23.296;2024-01-27T11:49:09;13.40;;;4.13;;
6850;SDS011;3464;42.728;23.296;2024-01-27T11:51:44;9.83;;;3.30;;
6850;SDS011;3464;42.728;23.296;2024-01-27T11:54:10;10.37;;;3.93;;
6850;SDS011;3464;42.728;23.296;2024-01-27T11:56:37;10.40;;;3.23;;
6850;SDS011;3464;42.728;23.296;2024-01-27T11:59:04;8.80;;;3.00;;
6850;SDS011;3464;42.728;23.296;2024-01-27T12:01:32;11.17;;;3.70;;
6850;SDS011;3464;42.728;23.296;2024-01-27T12:03:59;12.30;;;3.67;;
6850;SDS011;3464;42.728;23.296;2024-01-27T12:06:26;11.90;;;3.50;;
6850;SDS011;3464;42.728;23.296;2024-01-27T12:08:53;14.13;;;3.10;;
6850;SDS011;3464;42.728;23.296;2024-01-27T12:11:21;10.37;;;3.00;;
6850;SDS011;3464;42.728;23.296;2024-01-27T12:13:48;11.33;;;3.00;;
6850;SDS011;3464;42.728;23.296;2024-01-27T12:16:15;10.43;;;3.03;;
6850;SDS011;3464;42.728;23.296;2024-01-27T12:18:41;9.10;;;2.77;;
6850;SDS011;3464;42.728;23.296;2024-01-27T12:21:08;10.30;;;3.03;;
6850;SDS011;3464;42.728;23.296;2024-01-27T12:23:36;9.60;;;2.97;;
6850;SDS011;3464;42.728;23.296;2024-01-27T12:26:03;10.10;;;3.23;;
6850;SDS011;3464;42.728;23.296;2024-01-27T12:28:30;10.43;;;2.60;;
6850;SDS011;3464;42.728;23.296;2024-01-27T12:30:57;8.73;;;2.83;;
6850;SDS011;3464;42.728;23.296;2024-01-27T12:33:23;9.57;;;2.90;;
6850;SDS011;3464;42.728;23.296;2024-01-27T12:35:50;9.20;;;2.73;;
6850;SDS011;3464;42.728;23.296;2024-01-27T12:38:17;10.30;;;2.87;;
6850;SDS011;3464;42.728;23.296;2024-01-27T12:40:45;8.63;;;2.63;;
6850;SDS011;3464;42.728;23.296;2024-01-27T12:43:11;10.37;;;3.00;;
6850;SDS011;3464;42.728;23.296;2024-01-27T12:45:38;9.43;;;2.80;;
6850;SDS011;3464;42.728;23.296;2024-01-27T12:48:05;9.53;;;2.90;;
6850;SDS011;3464;42.728;23.296;2024-01-27T12:50:32;10.10;;;2.77;;
6850;SDS011;3464;42.728;23.296;2024-01-27T12:52:59;9.67;;;2.60;;
6850;SDS011;3464;42.728;23.296;2024-01-27T12:55:25;10.10;;;2.53;;
6850;SDS011;3464;42.728;23.296;2024-01-27T12:57:52;9.90;;;2.63;;
6850;SDS011;3464;42.728;23.296;2024-01-27T13:00:18;9.17;;;2.67;;
6850;SDS011;3464;42.728;23.296;2024-01-27T13:02:46;11.27;;;2.33;;
6850;SDS011;3464;42.728;23.296;2024-01-27T13:05:13;10.73;;;2.90;;
6850;SDS011;3464;42.728;23.296;2024-01-27T13:07:40;9.13;;;2.33;;
6850;SDS011;3464;42.728;23.296;2024-01-27T13:10:07;8.63;;;2.20;;
6850;SDS011;3464;42.728;23.296;2024-01-27T13:12:35;10.60;;;2.30;;
6850;SDS011;3464;42.728;23.296;2024-01-27T13:15:01;13.07;;;2.93;;
6850;SDS011;3464;42.728;23.296;2024-01-27T13:17:29;9.53;;;2.40;;
6850;SDS011;3464;42.728;23.296;2024-01-27T13:19:57;9.40;;;2.20;;
6850;SDS011;3464;42.728;23.296;2024-01-27T13:22:24;10.43;;;2.47;;
6850;SDS011;3464;42.728;23.296;2024-01-27T13:24:51;10.00;;;2.80;;
6850;SDS011;3464;42.728;23.296;2024-01-27T13:27:18;9.10;;;2.37;;
6850;SDS011;3464;42.728;23.296;2024-01-27T13:29:44;11.13;;;2.50;;
6850;SDS011;3464;42.728;23.296;2024-01-27T13:32:11;9.20;;;2.73;;
6850;SDS011;3464;42.728;23.296;2024-01-27T13:34:37;8.57;;;2.43;;
6850;SDS011;3464;42.728;23.296;2024-01-27T13:37:04;9.80;;;2.40;;
6850;SDS011;3464;42.728;23.296;2024-01-27T13:39:30;8.40;;;2.10;;
6850;SDS011;3464;42.728;23.296;2024-01-27T13:41:57;12.70;;;2.70;;
6850;SDS011;3464;42.728;23.296;2024-01-27T13:44:23;10.70;;;2.50;;
6850;SDS011;3464;42.728;23.296;2024-01-27T13:46:50;11.80;;;2.70;;
6850;SDS011;3464;42.728;23.296;2024-01-27T13:49:17;10.27;;;2.40;;
6850;SDS011;3464;42.728;23.296;2024-01-27T13:51:51;9.07;;;2.43;;
6850;SDS011;3464;42.728;23.296;2024-01-27T13:54:33;10.00;;;2.70;;
6850;SDS011;3464;42.728;23.296;2024-01-27T13:56:59;9.33;;;2.40;;
6850;SDS011;3464;42.728;23.296;2024-01-27T13:59:26;9.43;;;2.30;;
6850;SDS011;3464;42.728;23.296;2024-01-27T14:11:45;9.73;;;2.37;;
6850;SDS011;3464;42.728;23.296;2024-01-27T14:14:29;11.90;;;2.70;;
6850;SDS011;3464;42.728;23.296;2024-01-27T14:16:58;9.00;;;2.50;;
6850;SDS011;3464;42.728;23.296;2024-01-27T14:19:27;9.60;;;2.03;;
6850;SDS011;3464;42.728;23.296;2024-01-27T14:21:55;9.80;;;2.40;;
6850;SDS011;3464;42.728;23.296;2024-01-27T14:24:23;10.63;;;2.70;;
6850;SDS011;3464;42.728;23.296;2024-01-27T14:26:52;9.33;;;2.30;;
6850;SDS011;3464;42.728;23.296;2024-01-27T14:29:22;9.70;;;2.20;;
6850;SDS011;3464;42.728;23.296;2024-01-27T14:31:48;10.83;;;2.67;;
6850;SDS011;3464;42.728;23.296;2024-01-27T14:34:16;12.30;;;3.10;;
6850;SDS011;3464;42.728;23.296;2024-01-27T14:36:44;9.67;;;2.53;;
6850;SDS011;3464;42.728;23.296;2024-01-27T14:39:11;10.30;;;2.43;;
6850;SDS011;3464;42.728;23.296;2024-01-27T14:41:38;13.10;;;2.33;;
6850;SDS011;3464;42.728;23.296;2024-01-27T14:44:05;12.67;;;2.53;;
6850;SDS011;3464;42.728;23.296;2024-01-27T14:46:32;11.13;;;2.73;;
6850;SDS011;3464;42.728;23.296;2024-01-27T14:48:58;11.50;;;2.60;;
6850;SDS011;3464;42.728;23.296;2024-01-27T14:51:25;9.53;;;2.30;;
6850;SDS011;3464;42.728;23.296;2024-01-27T14:53:52;13.23;;;2.40;;
6850;SDS011;3464;42.728;23.296;2024-01-27T14:56:19;11.13;;;2.33;;
6850;SDS011;3464;42.728;23.296;2024-01-27T14:58:46;9.47;;;2.33;;
6850;SDS011;3464;42.728;23.296;2024-01-27T15:01:13;14.33;;;2.40;;
6850;SDS011;3464;42.728;23.296;2024-01-27T15:03:40;15.70;;;2.93;;
6850;SDS011;3464;42.728;23.296;2024-01-27T15:06:07;12.13;;;2.77;;
6850;SDS011;3464;42.728;23.296;2024-01-27T15:08:36;13.30;;;3.27;;
6850;SDS011;3464;42.728;23.296;2024-01-27T15:11:05;13.43;;;3.10;;
6850;SDS011;3464;42.728;23.296;2024-01-27T15:13:36;12.20;;;3.00;;